LIBD/BRI METAR and TAF weather

Enter ICAO airport designator
Station Type Date Time Source
LIBD METAR 2020/03/31 07:50 UTC NOAA

LIBD 310750Z 28009KT CAVOK 14/08 Q1014


Station Type Date Time Source
LIBD Decoded METAR 2020/03/31 07:50 UTC NOAA

Bari / Palese Macchie, Italy (LIBD) 41-08N 016-47E 49M
Mar 31, 2020 - 03:50 AM EDT / 2020.03.31 0750 UTC
Wind: from the W (280 degrees) at 10 MPH (9 KT):0
Visibility: greater than 7 mile(s):0
Temperature: 57 F (14 C)
Dew Point: 46 F (8 C)
Relative Humidity: 67%
Pressure (altimeter): 29.94 in. Hg (1014 hPa)
ob: LIBD 310750Z 28009KT CAVOK 14/08 Q1014
cycle: 8

Station Type Date Time Source
LIBD TAF 2020/03/31 06:22 UTC NOAA

TAF LIBD 310500Z 3106/0106 28008KT 9999 SCT040
BECMG 3108/3110 35013KT
TEMPO 3116/0106 4000 RA

Example: see airport list